Accueil
METAR-TAF:

METAR-TAF

Aéroports :

Aéroport international Jean-Lesage de Québec

Québec, Québec, Canada

latitude: 46-48N, longitude: 071-23W, altitude: 70 m

Observation

Le bulletin a été fait il y a 31 minutes, à 06:00 UTC
Vent 4 kt de est/nord-est, variant entre nord et est
Température 11°C
Humidité 66%
Pression 1009 hPa
Visibilité: 24.1 km
Ciel clair

METAR: CYQB 210600Z 06004KT 360V100 15SM SKC 11/05 A2979 RMK SLP088

Heure: 02:31 (06:31 UTC)

Prévision

Le bulletin a été fait il y a 50 minutes, à 05:41 UTC
Prévision valable du 21 à 06 UTC au 22 à 06 UTC
Vent 3 kt de direction variable
Visibilité: 10 km
Ciel clair
A partir de 21 à 1400 UTC
Vent 10 kt de nord-ouest
Visibilité: 10 km
Nuages épars à une hauteur de 5000 ft
Evoluant progressivement
du 22 à 00 UTC au 22 à 02 UTC
Vent 3 kt de direction variable

TAF: CYQB 210541Z 2106/2206 VRB03KT P6SM SKC FM211400 31010KT P6SM SCT050 BECMG 2200/2202 VRB03KT RMK NXT FCST BY 211200Z

Observations et prévisions météorologiques de plus de 4000 aéroports (messages METAR et TAF).

Les stations disponibles sont représentées par des disques jaunes et rouges sur la carte.

Passer la souris dessus pour voir le nom de la station.

Cliquer dessus pour voir les observations et prévisions météorologiques.

Pour changer de carte: cliquez sur les boutons verts avec une croix noire pour zoomer, sur le bouton vert avec un tiret pour effectuer un zoom arrière, ou sur les flèches vertes pour les cartes adjacentes.


METAR-TAF: